sensor_id;sensor_type;location;lat;lon;timestamp;P1;durP1;ratioP1;P2;durP2;ratioP2
10957;SDS011;5531;42.570;23.676;2022-08-25T00:02:20;8.02;;;5.05;;
10957;SDS011;5531;42.570;23.676;2022-08-25T00:04:49;8.15;;;5.00;;
10957;SDS011;5531;42.570;23.676;2022-08-25T00:07:18;6.25;;;5.00;;
10957;SDS011;5531;42.570;23.676;2022-08-25T00:09:49;7.93;;;4.97;;
10957;SDS011;5531;42.570;23.676;2022-08-25T00:12:19;8.80;;;5.50;;
10957;SDS011;5531;42.570;23.676;2022-08-25T00:14:48;8.55;;;5.20;;
10957;SDS011;5531;42.570;23.676;2022-08-25T00:17:17;6.45;;;5.28;;
10957;SDS011;5531;42.570;23.676;2022-08-25T00:19:46;7.82;;;4.93;;
10957;SDS011;5531;42.570;23.676;2022-08-25T00:22:15;7.30;;;4.88;;
10957;SDS011;5531;42.570;23.676;2022-08-25T00:24:44;6.28;;;4.50;;
10957;SDS011;5531;42.570;23.676;2022-08-25T00:27:16;7.20;;;5.05;;
10957;SDS011;5531;42.570;23.676;2022-08-25T00:29:46;6.38;;;4.65;;
10957;SDS011;5531;42.570;23.676;2022-08-25T00:32:15;6.60;;;5.05;;
10957;SDS011;5531;42.570;23.676;2022-08-25T00:34:45;7.80;;;5.40;;
10957;SDS011;5531;42.570;23.676;2022-08-25T00:37:14;6.10;;;5.03;;
10957;SDS011;5531;42.570;23.676;2022-08-25T00:39:43;5.82;;;4.93;;
10957;SDS011;5531;42.570;23.676;2022-08-25T00:42:13;5.25;;;4.75;;
10957;SDS011;5531;42.570;23.676;2022-08-25T00:44:45;6.20;;;5.57;;
10957;SDS011;5531;42.570;23.676;2022-08-25T00:47:14;6.97;;;5.60;;
10957;SDS011;5531;42.570;23.676;2022-08-25T00:49:44;10.70;;;5.90;;
10957;SDS011;5531;42.570;23.676;2022-08-25T00:52:18;6.63;;;5.63;;
10957;SDS011;5531;42.570;23.676;2022-08-25T00:54:50;8.82;;;5.50;;
10957;SDS011;5531;42.570;23.676;2022-08-25T00:57:25;8.98;;;5.20;;
10957;SDS011;5531;42.570;23.676;2022-08-25T00:59:57;6.97;;;4.72;;
10957;SDS011;5531;42.570;23.676;2022-08-25T01:02:27;6.65;;;5.13;;
10957;SDS011;5531;42.570;23.676;2022-08-25T01:04:56;5.95;;;5.30;;
10957;SDS011;5531;42.570;23.676;2022-08-25T01:07:25;7.80;;;5.47;;
10957;SDS011;5531;42.570;23.676;2022-08-25T01:09:54;6.32;;;5.20;;
10957;SDS011;5531;42.570;23.676;2022-08-25T01:12:27;6.55;;;5.22;;
10957;SDS011;5531;42.570;23.676;2022-08-25T01:14:56;8.70;;;5.53;;
10957;SDS011;5531;42.570;23.676;2022-08-25T01:17:31;8.23;;;5.35;;
10957;SDS011;5531;42.570;23.676;2022-08-25T01:20:02;6.18;;;5.20;;
10957;SDS011;5531;42.570;23.676;2022-08-25T01:22:34;6.43;;;5.30;;
10957;SDS011;5531;42.570;23.676;2022-08-25T01:25:06;6.38;;;5.35;;
10957;SDS011;5531;42.570;23.676;2022-08-25T01:27:45;7.35;;;5.35;;
10957;SDS011;5531;42.570;23.676;2022-08-25T01:30:14;7.13;;;5.43;;
10957;SDS011;5531;42.570;23.676;2022-08-25T01:32:43;8.88;;;5.35;;
10957;SDS011;5531;42.570;23.676;2022-08-25T01:35:13;6.88;;;5.38;;
10957;SDS011;5531;42.570;23.676;2022-08-25T01:37:45;5.97;;;5.35;;
10957;SDS011;5531;42.570;23.676;2022-08-25T01:40:14;6.68;;;5.35;;
10957;SDS011;5531;42.570;23.676;2022-08-25T01:42:46;8.52;;;5.47;;
10957;SDS011;5531;42.570;23.676;2022-08-25T01:45:25;10.15;;;6.00;;
10957;SDS011;5531;42.570;23.676;2022-08-25T01:47:55;7.72;;;5.30;;
10957;SDS011;5531;42.570;23.676;2022-08-25T01:50:24;6.85;;;5.20;;
10957;SDS011;5531;42.570;23.676;2022-08-25T01:52:57;8.02;;;5.40;;
10957;SDS011;5531;42.570;23.676;2022-08-25T01:55:30;6.68;;;5.05;;
10957;SDS011;5531;42.570;23.676;2022-08-25T01:58:16;7.47;;;5.68;;
10957;SDS011;5531;42.570;23.676;2022-08-25T02:00:45;6.63;;;5.03;;
10957;SDS011;5531;42.570;23.676;2022-08-25T02:03:16;6.63;;;5.05;;
10957;SDS011;5531;42.570;23.676;2022-08-25T02:05:45;5.75;;;4.68;;
10957;SDS011;5531;42.570;23.676;2022-08-25T02:08:17;7.15;;;5.28;;
10957;SDS011;5531;42.570;23.676;2022-08-25T02:10:47;8.40;;;5.68;;
10957;SDS011;5531;42.570;23.676;2022-08-25T02:13:17;7.20;;;5.38;;
10957;SDS011;5531;42.570;23.676;2022-08-25T02:15:48;7.65;;;5.65;;
10957;SDS011;5531;42.570;23.676;2022-08-25T02:18:19;8.30;;;5.28;;
10957;SDS011;5531;42.570;23.676;2022-08-25T02:20:48;8.80;;;5.63;;
10957;SDS011;5531;42.570;23.676;2022-08-25T02:23:20;5.78;;;4.80;;
10957;SDS011;5531;42.570;23.676;2022-08-25T02:25:49;7.22;;;5.00;;
10957;SDS011;5531;42.570;23.676;2022-08-25T02:28:19;7.35;;;5.28;;
10957;SDS011;5531;42.570;23.676;2022-08-25T02:30:48;8.80;;;5.47;;
10957;SDS011;5531;42.570;23.676;2022-08-25T02:33:17;7.60;;;5.15;;
10957;SDS011;5531;42.570;23.676;2022-08-25T02:35:46;8.82;;;5.50;;
10957;SDS011;5531;42.570;23.676;2022-08-25T02:38:16;8.68;;;5.70;;
10957;SDS011;5531;42.570;23.676;2022-08-25T02:40:48;7.68;;;5.60;;
10957;SDS011;5531;42.570;23.676;2022-08-25T02:43:17;8.43;;;5.68;;
10957;SDS011;5531;42.570;23.676;2022-08-25T02:45:46;7.40;;;5.72;;
10957;SDS011;5531;42.570;23.676;2022-08-25T02:48:15;7.97;;;5.45;;
10957;SDS011;5531;42.570;23.676;2022-08-25T02:50:45;9.90;;;6.53;;
10957;SDS011;5531;42.570;23.676;2022-08-25T02:53:16;8.10;;;5.80;;
10957;SDS011;5531;42.570;23.676;2022-08-25T02:55:48;7.47;;;5.68;;
10957;SDS011;5531;42.570;23.676;2022-08-25T02:58:18;9.05;;;6.65;;
10957;SDS011;5531;42.570;23.676;2022-08-25T03:00:47;7.63;;;5.45;;
10957;SDS011;5531;42.570;23.676;2022-08-25T03:03:17;7.40;;;6.55;;
10957;SDS011;5531;42.570;23.676;2022-08-25T03:05:46;9.75;;;6.80;;
10957;SDS011;5531;42.570;23.676;2022-08-25T03:08:16;8.55;;;6.72;;
10957;SDS011;5531;42.570;23.676;2022-08-25T03:10:45;8.63;;;7.10;;
10957;SDS011;5531;42.570;23.676;2022-08-25T03:13:16;9.20;;;6.43;;
10957;SDS011;5531;42.570;23.676;2022-08-25T03:15:46;8.82;;;6.47;;
10957;SDS011;5531;42.570;23.676;2022-08-25T03:18:15;9.43;;;6.55;;
10957;SDS011;5531;42.570;23.676;2022-08-25T03:20:44;7.72;;;6.55;;
10957;SDS011;5531;42.570;23.676;2022-08-25T03:23:14;9.13;;;7.32;;
10957;SDS011;5531;42.570;23.676;2022-08-25T03:25:43;6.82;;;6.13;;
10957;SDS011;5531;42.570;23.676;2022-08-25T03:28:30;9.07;;;6.85;;
10957;SDS011;5531;42.570;23.676;2022-08-25T03:31:00;9.00;;;6.82;;
10957;SDS011;5531;42.570;23.676;2022-08-25T03:33:29;8.20;;;7.20;;
10957;SDS011;5531;42.570;23.676;2022-08-25T03:35:59;9.82;;;7.22;;
10957;SDS011;5531;42.570;23.676;2022-08-25T03:38:28;7.32;;;6.63;;
10957;SDS011;5531;42.570;23.676;2022-08-25T03:40:57;8.82;;;6.45;;
10957;SDS011;5531;42.570;23.676;2022-08-25T03:43:26;7.90;;;6.32;;
10957;SDS011;5531;42.570;23.676;2022-08-25T03:45:58;8.00;;;6.85;;
10957;SDS011;5531;42.570;23.676;2022-08-25T03:48:27;8.77;;;6.25;;
10957;SDS011;5531;42.570;23.676;2022-08-25T03:50:56;9.07;;;7.10;;
10957;SDS011;5531;42.570;23.676;2022-08-25T03:53:25;9.35;;;7.07;;
10957;SDS011;5531;42.570;23.676;2022-08-25T03:55:54;9.77;;;7.05;;
10957;SDS011;5531;42.570;23.676;2022-08-25T03:58:24;8.93;;;6.47;;
10957;SDS011;5531;42.570;23.676;2022-08-25T04:00:53;8.70;;;6.47;;
10957;SDS011;5531;42.570;23.676;2022-08-25T04:03:27;8.35;;;6.88;;
10957;SDS011;5531;42.570;23.676;2022-08-25T04:05:59;9.10;;;7.18;;
10957;SDS011;5531;42.570;23.676;2022-08-25T04:08:29;10.60;;;6.38;;
10957;SDS011;5531;42.570;23.676;2022-08-25T04:10:58;7.95;;;6.80;;
10957;SDS011;5531;42.570;23.676;2022-08-25T04:13:32;9.55;;;6.95;;
10957;SDS011;5531;42.570;23.676;2022-08-25T04:16:01;8.88;;;6.80;;
10957;SDS011;5531;42.570;23.676;2022-08-25T04:18:34;9.93;;;7.10;;
10957;SDS011;5531;42.570;23.676;2022-08-25T04:21:04;9.63;;;7.20;;
10957;SDS011;5531;42.570;23.676;2022-08-25T04:23:35;9.60;;;7.40;;
10957;SDS011;5531;42.570;23.676;2022-08-25T04:26:07;10.90;;;6.68;;
10957;SDS011;5531;42.570;23.676;2022-08-25T04:28:37;9.25;;;6.65;;
10957;SDS011;5531;42.570;23.676;2022-08-25T04:31:06;10.70;;;6.80;;
10957;SDS011;5531;42.570;23.676;2022-08-25T04:33:38;10.85;;;7.53;;
10957;SDS011;5531;42.570;23.676;2022-08-25T04:36:09;8.80;;;7.32;;
10957;SDS011;5531;42.570;23.676;2022-08-25T04:38:39;9.98;;;7.15;;
10957;SDS011;5531;42.570;23.676;2022-08-25T04:41:10;8.13;;;7.15;;
10957;SDS011;5531;42.570;23.676;2022-08-25T04:43:40;10.18;;;7.57;;
10957;SDS011;5531;42.570;23.676;2022-08-25T04:46:12;8.15;;;6.90;;
10957;SDS011;5531;42.570;23.676;2022-08-25T04:48:45;7.82;;;6.72;;
10957;SDS011;5531;42.570;23.676;2022-08-25T04:51:15;8.18;;;6.72;;
10957;SDS011;5531;42.570;23.676;2022-08-25T04:53:47;8.82;;;7.38;;
10957;SDS011;5531;42.570;23.676;2022-08-25T04:56:17;9.50;;;6.78;;
10957;SDS011;5531;42.570;23.676;2022-08-25T04:58:49;8.25;;;6.57;;
10957;SDS011;5531;42.570;23.676;2022-08-25T05:01:20;13.60;;;6.82;;
10957;SDS011;5531;42.570;23.676;2022-08-25T05:03:54;9.63;;;6.25;;
10957;SDS011;5531;42.570;23.676;2022-08-25T05:06:25;8.43;;;6.30;;
10957;SDS011;5531;42.570;23.676;2022-08-25T05:08:56;7.75;;;6.50;;
10957;SDS011;5531;42.570;23.676;2022-08-25T05:11:26;7.20;;;6.20;;
10957;SDS011;5531;42.570;23.676;2022-08-25T05:13:56;8.00;;;6.47;;
10957;SDS011;5531;42.570;23.676;2022-08-25T05:16:25;9.88;;;6.38;;
10957;SDS011;5531;42.570;23.676;2022-08-25T05:18:58;8.02;;;6.07;;
10957;SDS011;5531;42.570;23.676;2022-08-25T05:21:29;7.00;;;6.15;;
10957;SDS011;5531;42.570;23.676;2022-08-25T05:23:59;8.43;;;6.72;;
10957;SDS011;5531;42.570;23.676;2022-08-25T05:26:29;8.43;;;6.20;;
10957;SDS011;5531;42.570;23.676;2022-08-25T05:29:01;7.38;;;6.00;;
10957;SDS011;5531;42.570;23.676;2022-08-25T05:31:31;8.38;;;6.15;;
10957;SDS011;5531;42.570;23.676;2022-08-25T05:34:06;9.90;;;6.05;;
10957;SDS011;5531;42.570;23.676;2022-08-25T05:36:36;6.93;;;5.65;;
10957;SDS011;5531;42.570;23.676;2022-08-25T05:39:07;8.55;;;6.32;;
10957;SDS011;5531;42.570;23.676;2022-08-25T05:41:37;10.10;;;6.25;;
10957;SDS011;5531;42.570;23.676;2022-08-25T05:44:06;8.18;;;6.15;;
10957;SDS011;5531;42.570;23.676;2022-08-25T05:46:37;8.77;;;6.35;;
10957;SDS011;5531;42.570;23.676;2022-08-25T05:49:08;6.95;;;6.22;;
10957;SDS011;5531;42.570;23.676;2022-08-25T05:51:37;7.22;;;6.15;;
10957;SDS011;5531;42.570;23.676;2022-08-25T05:54:06;10.43;;;6.28;;
10957;SDS011;5531;42.570;23.676;2022-08-25T05:56:35;8.68;;;6.13;;
10957;SDS011;5531;42.570;23.676;2022-08-25T05:59:04;10.70;;;6.53;;
10957;SDS011;5531;42.570;23.676;2022-08-25T06:01:33;6.90;;;5.80;;
10957;SDS011;5531;42.570;23.676;2022-08-25T06:04:17;8.70;;;6.68;;
10957;SDS011;5531;42.570;23.676;2022-08-25T06:06:46;10.07;;;5.95;;
10957;SDS011;5531;42.570;23.676;2022-08-25T06:09:18;9.27;;;6.30;;
10957;SDS011;5531;42.570;23.676;2022-08-25T06:11:47;8.27;;;6.05;;
10957;SDS011;5531;42.570;23.676;2022-08-25T06:14:16;9.82;;;6.22;;
10957;SDS011;5531;42.570;23.676;2022-08-25T06:16:45;7.90;;;6.20;;
10957;SDS011;5531;42.570;23.676;2022-08-25T06:19:18;7.65;;;5.82;;
10957;SDS011;5531;42.570;23.676;2022-08-25T06:21:47;9.05;;;5.63;;
10957;SDS011;5531;42.570;23.676;2022-08-25T06:24:16;7.07;;;5.93;;
10957;SDS011;5531;42.570;23.676;2022-08-25T06:26:45;7.45;;;5.80;;
10957;SDS011;5531;42.570;23.676;2022-08-25T06:29:15;8.70;;;5.40;;
10957;SDS011;5531;42.570;23.676;2022-08-25T06:31:44;8.63;;;5.50;;
10957;SDS011;5531;42.570;23.676;2022-08-25T06:34:14;7.05;;;5.60;;
10957;SDS011;5531;42.570;23.676;2022-08-25T06:36:46;8.63;;;5.57;;
10957;SDS011;5531;42.570;23.676;2022-08-25T06:39:15;7.50;;;5.57;;
10957;SDS011;5531;42.570;23.676;2022-08-25T06:41:44;7.68;;;5.07;;
10957;SDS011;5531;42.570;23.676;2022-08-25T06:44:13;7.13;;;5.28;;
10957;SDS011;5531;42.570;23.676;2022-08-25T06:46:42;8.05;;;5.53;;
10957;SDS011;5531;42.570;23.676;2022-08-25T06:49:11;9.70;;;5.47;;
10957;SDS011;5531;42.570;23.676;2022-08-25T06:51:41;7.38;;;5.50;;
10957;SDS011;5531;42.570;23.676;2022-08-25T06:54:12;7.47;;;5.63;;
10957;SDS011;5531;42.570;23.676;2022-08-25T06:56:41;7.88;;;5.28;;
10957;SDS011;5531;42.570;23.676;2022-08-25T06:59:11;9.32;;;5.28;;
10957;SDS011;5531;42.570;23.676;2022-08-25T07:01:41;5.88;;;5.03;;
10957;SDS011;5531;42.570;23.676;2022-08-25T07:04:10;5.93;;;5.32;;
10957;SDS011;5531;42.570;23.676;2022-08-25T07:06:40;6.40;;;4.97;;
10957;SDS011;5531;42.570;23.676;2022-08-25T07:09:12;7.07;;;5.18;;
10957;SDS011;5531;42.570;23.676;2022-08-25T07:11:44;5.82;;;5.10;;
10957;SDS011;5531;42.570;23.676;2022-08-25T07:14:21;10.23;;;5.53;;
10957;SDS011;5531;42.570;23.676;2022-08-25T07:16:52;5.35;;;4.72;;
10957;SDS011;5531;42.570;23.676;2022-08-25T07:19:22;7.72;;;5.70;;
10957;SDS011;5531;42.570;23.676;2022-08-25T07:21:51;8.05;;;5.40;;
10957;SDS011;5531;42.570;23.676;2022-08-25T07:24:24;6.03;;;5.40;;
10957;SDS011;5531;42.570;23.676;2022-08-25T07:26:53;6.30;;;4.95;;
10957;SDS011;5531;42.570;23.676;2022-08-25T07:29:24;6.20;;;5.25;;
10957;SDS011;5531;42.570;23.676;2022-08-25T07:31:57;8.18;;;5.90;;
10957;SDS011;5531;42.570;23.676;2022-08-25T07:34:26;6.82;;;5.32;;
10957;SDS011;5531;42.570;23.676;2022-08-25T07:37:07;6.10;;;5.05;;
10957;SDS011;5531;42.570;23.676;2022-08-25T07:39:39;9.60;;;5.88;;
10957;SDS011;5531;42.570;23.676;2022-08-25T07:42:08;7.75;;;5.72;;
10957;SDS011;5531;42.570;23.676;2022-08-25T07:44:39;6.18;;;5.22;;
10957;SDS011;5531;42.570;23.676;2022-08-25T07:47:08;6.72;;;5.18;;
10957;SDS011;5531;42.570;23.676;2022-08-25T07:49:39;6.00;;;5.28;;
10957;SDS011;5531;42.570;23.676;2022-08-25T07:52:09;8.15;;;5.20;;
10957;SDS011;5531;42.570;23.676;2022-08-25T07:54:41;8.75;;;5.28;;
10957;SDS011;5531;42.570;23.676;2022-08-25T07:57:10;6.90;;;5.32;;
10957;SDS011;5531;42.570;23.676;2022-08-25T07:59:40;9.50;;;4.78;;
10957;SDS011;5531;42.570;23.676;2022-08-25T08:02:10;7.10;;;4.72;;
10957;SDS011;5531;42.570;23.676;2022-08-25T08:04:41;5.53;;;4.68;;
10957;SDS011;5531;42.570;23.676;2022-08-25T08:07:10;8.73;;;5.05;;
10957;SDS011;5531;42.570;23.676;2022-08-25T08:09:42;8.07;;;4.32;;
10957;SDS011;5531;42.570;23.676;2022-08-25T08:12:11;5.47;;;4.18;;
10957;SDS011;5531;42.570;23.676;2022-08-25T08:14:40;4.95;;;4.10;;
10957;SDS011;5531;42.570;23.676;2022-08-25T08:17:10;7.50;;;4.43;;
10957;SDS011;5531;42.570;23.676;2022-08-25T08:19:40;7.63;;;4.30;;
10957;SDS011;5531;42.570;23.676;2022-08-25T08:22:09;5.45;;;4.30;;
10957;SDS011;5531;42.570;23.676;2022-08-25T08:24:42;8.82;;;4.43;;
10957;SDS011;5531;42.570;23.676;2022-08-25T08:27:12;7.07;;;4.10;;
10957;SDS011;5531;42.570;23.676;2022-08-25T08:29:42;11.23;;;3.78;;
10957;SDS011;5531;42.570;23.676;2022-08-25T08:32:11;9.95;;;4.43;;
10957;SDS011;5531;42.570;23.676;2022-08-25T08:34:42;8.93;;;4.15;;
10957;SDS011;5531;42.570;23.676;2022-08-25T08:37:11;9.70;;;4.57;;
10957;SDS011;5531;42.570;23.676;2022-08-25T08:39:43;6.68;;;3.83;;
10957;SDS011;5531;42.570;23.676;2022-08-25T08:42:18;8.75;;;4.00;;
10957;SDS011;5531;42.570;23.676;2022-08-25T08:45:12;8.82;;;3.90;;
10957;SDS011;5531;42.570;23.676;2022-08-25T08:47:52;6.63;;;3.15;;
10957;SDS011;5531;42.570;23.676;2022-08-25T08:50:44;7.32;;;3.72;;
10957;SDS011;5531;42.570;23.676;2022-08-25T08:53:22;7.22;;;3.80;;
10957;SDS011;5531;42.570;23.676;2022-08-25T08:56:04;6.25;;;3.28;;
10957;SDS011;5531;42.570;23.676;2022-08-25T08:58:38;4.03;;;2.95;;
10957;SDS011;5531;42.570;23.676;2022-08-25T09:01:11;5.68;;;2.90;;
10957;SDS011;5531;42.570;23.676;2022-08-25T09:03:46;5.35;;;3.40;;
10957;SDS011;5531;42.570;23.676;2022-08-25T09:06:21;5.15;;;3.47;;
10957;SDS011;5531;42.570;23.676;2022-08-25T09:08:56;8.13;;;3.38;;
10957;SDS011;5531;42.570;23.676;2022-08-25T09:11:36;6.65;;;3.95;;
10957;SDS011;5531;42.570;23.676;2022-08-25T09:14:22;5.85;;;2.88;;
10957;SDS011;5531;42.570;23.676;2022-08-25T09:17:04;6.15;;;3.10;;
10957;SDS011;5531;42.570;23.676;2022-08-25T09:19:51;9.30;;;3.30;;
10957;SDS011;5531;42.570;23.676;2022-08-25T09:22:39;5.80;;;3.00;;
10957;SDS011;5531;42.570;23.676;2022-08-25T09:25:21;5.57;;;2.60;;
10957;SDS011;5531;42.570;23.676;2022-08-25T09:28:00;5.13;;;2.97;;
10957;SDS011;5531;42.570;23.676;2022-08-25T09:33:05;4.18;;;2.35;;
10957;SDS011;5531;42.570;23.676;2022-08-25T09:35:35;4.82;;;2.38;;
10957;SDS011;5531;42.570;23.676;2022-08-25T09:38:08;6.75;;;2.40;;
10957;SDS011;5531;42.570;23.676;2022-08-25T09:40:40;5.88;;;2.90;;
10957;SDS011;5531;42.570;23.676;2022-08-25T09:43:20;4.72;;;2.75;;
10957;SDS011;5531;42.570;23.676;2022-08-25T09:45:56;4.82;;;2.30;;
10957;SDS011;5531;42.570;23.676;2022-08-25T09:48:27;4.60;;;2.42;;
10957;SDS011;5531;42.570;23.676;2022-08-25T09:51:09;5.55;;;2.70;;
10957;SDS011;5531;42.570;23.676;2022-08-25T09:53:47;3.33;;;2.30;;
10957;SDS011;5531;42.570;23.676;2022-08-25T09:56:21;5.88;;;3.15;;
10957;SDS011;5531;42.570;23.676;2022-08-25T09:58:55;3.97;;;2.38;;
10957;SDS011;5531;42.570;23.676;2022-08-25T10:01:46;7.00;;;2.70;;
10957;SDS011;5531;42.570;23.676;2022-08-25T10:04:24;4.63;;;2.75;;
10957;SDS011;5531;42.570;23.676;2022-08-25T10:06:53;8.65;;;3.10;;
10957;SDS011;5531;42.570;23.676;2022-08-25T10:09:24;7.15;;;2.80;;
10957;SDS011;5531;42.570;23.676;2022-08-25T10:11:58;8.65;;;2.80;;
10957;SDS011;5531;42.570;23.676;2022-08-25T10:14:34;6.78;;;3.00;;
10957;SDS011;5531;42.570;23.676;2022-08-25T10:17:13;5.43;;;2.45;;
10957;SDS011;5531;42.570;23.676;2022-08-25T10:19:49;5.00;;;2.28;;
10957;SDS011;5531;42.570;23.676;2022-08-25T10:22:21;6.43;;;2.35;;
10957;SDS011;5531;42.570;23.676;2022-08-25T10:24:56;5.88;;;2.20;;
10957;SDS011;5531;42.570;23.676;2022-08-25T10:27:36;5.38;;;2.53;;
10957;SDS011;5531;42.570;23.676;2022-08-25T10:30:18;5.45;;;2.15;;
10957;SDS011;5531;42.570;23.676;2022-08-25T10:32:59;4.05;;;2.55;;
10957;SDS011;5531;42.570;23.676;2022-08-25T10:35:42;4.75;;;2.20;;
10957;SDS011;5531;42.570;23.676;2022-08-25T10:38:25;5.20;;;2.75;;
10957;SDS011;5531;42.570;23.676;2022-08-25T10:41:16;3.42;;;2.20;;
10957;SDS011;5531;42.570;23.676;2022-08-25T10:43:57;3.17;;;2.30;;
10957;SDS011;5531;42.570;23.676;2022-08-25T10:47:00;4.10;;;2.40;;
10957;SDS011;5531;42.570;23.676;2022-08-25T10:49:58;4.80;;;1.92;;
10957;SDS011;5531;42.570;23.676;2022-08-25T10:52:36;5.07;;;2.30;;
10957;SDS011;5531;42.570;23.676;2022-08-25T10:55:10;3.75;;;2.22;;
10957;SDS011;5531;42.570;23.676;2022-08-25T10:57:46;5.40;;;2.22;;
10957;SDS011;5531;42.570;23.676;2022-08-25T11:00:24;4.03;;;2.00;;
10957;SDS011;5531;42.570;23.676;2022-08-25T11:03:08;5.70;;;2.05;;
10957;SDS011;5531;42.570;23.676;2022-08-25T11:05:45;7.30;;;2.50;;
10957;SDS011;5531;42.570;23.676;2022-08-25T11:08:20;6.50;;;2.25;;
10957;SDS011;5531;42.570;23.676;2022-08-25T11:11:02;5.07;;;2.63;;
10957;SDS011;5531;42.570;23.676;2022-08-25T11:13:37;7.05;;;2.60;;
10957;SDS011;5531;42.570;23.676;2022-08-25T11:16:15;6.75;;;2.50;;
10957;SDS011;5531;42.570;23.676;2022-08-25T11:18:53;7.28;;;2.88;;
10957;SDS011;5531;42.570;23.676;2022-08-25T11:21:27;3.38;;;2.10;;
10957;SDS011;5531;42.570;23.676;2022-08-25T11:24:06;5.03;;;1.90;;
10957;SDS011;5531;42.570;23.676;2022-08-25T11:26:47;3.72;;;2.10;;
10957;SDS011;5531;42.570;23.676;2022-08-25T11:29:23;6.80;;;2.45;;
10957;SDS011;5531;42.570;23.676;2022-08-25T11:31:58;5.95;;;2.20;;
10957;SDS011;5531;42.570;23.676;2022-08-25T11:34:32;5.63;;;2.03;;
10957;SDS011;5531;42.570;23.676;2022-08-25T11:37:06;6.60;;;2.15;;
10957;SDS011;5531;42.570;23.676;2022-08-25T11:39:51;6.40;;;2.40;;
10957;SDS011;5531;42.570;23.676;2022-08-25T11:42:45;8.20;;;2.33;;
10957;SDS011;5531;42.570;23.676;2022-08-25T11:45:34;8.27;;;2.30;;
10957;SDS011;5531;42.570;23.676;2022-08-25T11:48:16;8.10;;;3.72;;
10957;SDS011;5531;42.570;23.676;2022-08-25T11:51:08;5.00;;;2.08;;
10957;SDS011;5531;42.570;23.676;2022-08-25T11:53:39;6.32;;;2.42;;
10957;SDS011;5531;42.570;23.676;2022-08-25T11:56:10;7.13;;;2.20;;
10957;SDS011;5531;42.570;23.676;2022-08-25T11:58:58;2.75;;;1.95;;
10957;SDS011;5531;42.570;23.676;2022-08-25T12:04:36;5.80;;;2.10;;
10957;SDS011;5531;42.570;23.676;2022-08-25T12:10:20;5.25;;;2.15;;
10957;SDS011;5531;42.570;23.676;2022-08-25T12:13:01;5.30;;;2.17;;
10957;SDS011;5531;42.570;23.676;2022-08-25T12:15:56;3.90;;;1.98;;
10957;SDS011;5531;42.570;23.676;2022-08-25T12:18:40;3.38;;;1.95;;
10957;SDS011;5531;42.570;23.676;2022-08-25T12:21:12;6.18;;;2.33;;
10957;SDS011;5531;42.570;23.676;2022-08-25T12:26:52;4.45;;;2.55;;
10957;SDS011;5531;42.570;23.676;2022-08-25T12:29:32;4.93;;;3.05;;
10957;SDS011;5531;42.570;23.676;2022-08-25T12:32:12;5.10;;;2.35;;
10957;SDS011;5531;42.570;23.676;2022-08-25T12:37:53;4.10;;;2.28;;
10957;SDS011;5531;42.570;23.676;2022-08-25T12:40:28;4.22;;;2.20;;
10957;SDS011;5531;42.570;23.676;2022-08-25T12:43:04;4.90;;;2.20;;
10957;SDS011;5531;42.570;23.676;2022-08-25T12:45:38;5.13;;;2.40;;
10957;SDS011;5531;42.570;23.676;2022-08-25T12:51:22;3.33;;;2.10;;
10957;SDS011;5531;42.570;23.676;2022-08-25T12:53:56;4.60;;;2.47;;
10957;SDS011;5531;42.570;23.676;2022-08-25T12:56:39;2.92;;;1.90;;
10957;SDS011;5531;42.570;23.676;2022-08-25T12:59:16;3.28;;;2.17;;
10957;SDS011;5531;42.570;23.676;2022-08-25T13:02:03;4.13;;;2.10;;
10957;SDS011;5531;42.570;23.676;2022-08-25T13:07:46;5.65;;;2.20;;
10957;SDS011;5531;42.570;23.676;2022-08-25T13:10:33;2.83;;;2.20;;
10957;SDS011;5531;42.570;23.676;2022-08-25T13:13:11;3.83;;;2.17;;
10957;SDS011;5531;42.570;23.676;2022-08-25T13:15:59;4.80;;;2.20;;
10957;SDS011;5531;42.570;23.676;2022-08-25T13:18:35;2.65;;;2.03;;
10957;SDS011;5531;42.570;23.676;2022-08-25T13:21:07;5.25;;;2.42;;
10957;SDS011;5531;42.570;23.676;2022-08-25T13:23:43;2.78;;;2.33;;
10957;SDS011;5531;42.570;23.676;2022-08-25T13:26:15;4.43;;;2.28;;
10957;SDS011;5531;42.570;23.676;2022-08-25T13:28:55;4.15;;;2.20;;
10957;SDS011;5531;42.570;23.676;2022-08-25T13:31:30;2.90;;;1.92;;
10957;SDS011;5531;42.570;23.676;2022-08-25T13:34:00;4.90;;;2.33;;
10957;SDS011;5531;42.570;23.676;2022-08-25T13:36:31;2.67;;;2.10;;
10957;SDS011;5531;42.570;23.676;2022-08-25T13:39:22;4.22;;;2.50;;
10957;SDS011;5531;42.570;23.676;2022-08-25T13:41:55;4.60;;;2.35;;
10957;SDS011;5531;42.570;23.676;2022-08-25T13:44:26;2.95;;;2.25;;
10957;SDS011;5531;42.570;23.676;2022-08-25T13:47:10;7.18;;;2.88;;
10957;SDS011;5531;42.570;23.676;2022-08-25T13:49:42;3.53;;;2.50;;
10957;SDS011;5531;42.570;23.676;2022-08-25T13:52:14;6.45;;;2.25;;
10957;SDS011;5531;42.570;23.676;2022-08-25T13:54:47;3.70;;;2.22;;
10957;SDS011;5531;42.570;23.676;2022-08-25T13:57:18;4.10;;;2.38;;
10957;SDS011;5531;42.570;23.676;2022-08-25T13:59:51;5.43;;;2.90;;
10957;SDS011;5531;42.570;23.676;2022-08-25T14:05:12;4.45;;;2.40;;
10957;SDS011;5531;42.570;23.676;2022-08-25T14:07:51;5.10;;;2.17;;
10957;SDS011;5531;42.570;23.676;2022-08-25T14:10:30;7.38;;;2.53;;
10957;SDS011;5531;42.570;23.676;2022-08-25T14:13:08;5.22;;;2.60;;
10957;SDS011;5531;42.570;23.676;2022-08-25T14:15:40;4.20;;;2.55;;
10957;SDS011;5531;42.570;23.676;2022-08-25T14:18:16;4.07;;;2.55;;
10957;SDS011;5531;42.570;23.676;2022-08-25T14:20:48;6.32;;;2.55;;
10957;SDS011;5531;42.570;23.676;2022-08-25T14:23:20;4.25;;;2.38;;
10957;SDS011;5531;42.570;23.676;2022-08-25T14:25:52;4.65;;;2.60;;
10957;SDS011;5531;42.570;23.676;2022-08-25T14:28:25;5.88;;;2.20;;
10957;SDS011;5531;42.570;23.676;2022-08-25T14:30:57;5.00;;;2.10;;
10957;SDS011;5531;42.570;23.676;2022-08-25T14:33:32;3.80;;;2.38;;
10957;SDS011;5531;42.570;23.676;2022-08-25T14:36:03;5.55;;;2.35;;
10957;SDS011;5531;42.570;23.676;2022-08-25T14:38:33;4.05;;;2.10;;
10957;SDS011;5531;42.570;23.676;2022-08-25T14:41:03;5.32;;;2.17;;
10957;SDS011;5531;42.570;23.676;2022-08-25T14:43:33;2.85;;;1.90;;
10957;SDS011;5531;42.570;23.676;2022-08-25T14:46:08;3.13;;;2.10;;
10957;SDS011;5531;42.570;23.676;2022-08-25T14:48:44;5.75;;;2.30;;
10957;SDS011;5531;42.570;23.676;2022-08-25T14:51:16;7.10;;;2.00;;
10957;SDS011;5531;42.570;23.676;2022-08-25T14:53:45;5.25;;;2.25;;
10957;SDS011;5531;42.570;23.676;2022-08-25T14:56:15;2.97;;;2.20;;
10957;SDS011;5531;42.570;23.676;2022-08-25T14:58:44;6.72;;;2.25;;
10957;SDS011;5531;42.570;23.676;2022-08-25T15:01:13;5.80;;;2.40;;
10957;SDS011;5531;42.570;23.676;2022-08-25T15:03:47;4.03;;;2.20;;
10957;SDS011;5531;42.570;23.676;2022-08-25T15:06:20;4.43;;;2.10;;
10957;SDS011;5531;42.570;23.676;2022-08-25T15:08:49;3.72;;;2.08;;
10957;SDS011;5531;42.570;23.676;2022-08-25T15:11:31;7.10;;;2.42;;
10957;SDS011;5531;42.570;23.676;2022-08-25T15:14:01;3.33;;;1.90;;
10957;SDS011;5531;42.570;23.676;2022-08-25T15:16:31;3.83;;;2.22;;
10957;SDS011;5531;42.570;23.676;2022-08-25T15:19:06;4.38;;;2.08;;
10957;SDS011;5531;42.570;23.676;2022-08-25T15:21:38;5.82;;;2.05;;
10957;SDS011;5531;42.570;23.676;2022-08-25T15:24:09;2.15;;;1.83;;
10957;SDS011;5531;42.570;23.676;2022-08-25T15:26:39;3.30;;;1.92;;
10957;SDS011;5531;42.570;23.676;2022-08-25T15:29:14;4.72;;;2.08;;
10957;SDS011;5531;42.570;23.676;2022-08-25T15:31:44;3.72;;;1.77;;
10957;SDS011;5531;42.570;23.676;2022-08-25T15:34:16;4.05;;;1.98;;
10957;SDS011;5531;42.570;23.676;2022-08-25T15:36:45;3.97;;;1.98;;
10957;SDS011;5531;42.570;23.676;2022-08-25T15:39:15;4.22;;;1.90;;
10957;SDS011;5531;42.570;23.676;2022-08-25T15:41:44;6.18;;;2.13;;
10957;SDS011;5531;42.570;23.676;2022-08-25T15:44:16;5.00;;;2.00;;
10957;SDS011;5531;42.570;23.676;2022-08-25T15:46:45;3.42;;;1.90;;
10957;SDS011;5531;42.570;23.676;2022-08-25T15:49:18;6.65;;;1.90;;